Grand Lake, CO (80447)

4:25 PM MST on November 27, 2014 (GMT -0700)
Beautiful Rocky Mountains | Change Station
CLOSE
Current Station
Personal Weather Station
Location: Grand Lake, CO
Elevation: 8465 ft
Nearby Weather Stations

Elev 8465 ft 40.20 °N, 105.87 °W | Updated 36 seconds ago

Mostly Cloudy
Mostly Cloudy
40.6 °F
Feels Like 41 °F
N
0.0
Wind Variable Wind from NNW

Today
High -- | Low -- °F
--% Chance of Precip.
Yesterday
High -- | Low -- °F
Precip. -- in
7:02 AM 4:39 PM
Waxing Crescent, 34% visible
Pressure 30.31 in
Visibility 10.0 miles
Clouds Overcast 11000 ft
Windchill 41 °F
Dew Point 23 °F
Humidity 50%
Rainfall 0.17 in
Snow Depth Not available.
UV 0 out of 12
Pollen .10 out of 12
Air Quality Not available.
Flu Activity Not available.
METAR K20V 272315Z AUTO 26007KT 10SM OVC110 06/M05 A3031 RMK AO2

More Conditions Fewer Conditions

Pressure 30.31 in
Visibility 10.0 miles
Clouds Overcast 11000 ft
Windchill 41 °F
Dew Point 23 °F
Humidity 50%
Rainfall 0.17 in
Snow Depth Not available.
UV 0 out of 12
Pollen .10 out of 12
Air Quality Not available.
Flu Activity Not available.
METAR K20V 272315Z AUTO 26007KT 10SM OVC110 06/M05 A3031 RMK AO2

More Conditions Fewer Conditions

10-Day Weather Forecast

Almanac

Astronomy

Nov. 27, 2014 Rise Set
Actual Time
Civil Twilight
Nautical Twilight
Astronomical Twilight
Moon
Length of Visible Light
Length of Day
Tomorrow will be .
, % of the Moon is Illuminated

Today's Extremes

State Highs State Lows

Community

WunderPhotos

Upload Photos

1,774,135 photos uploaded!

WunderBlogs® & News

Nearby

Air Quality

  Air Quality AQ Index Pollutant
Not available.

Snow Depth

Station Depth Elevation

Earthquake Activity

City Distance Mag. Time & Date
Minimum magnitude displayed is 2.5.

Coastal Water Temperatures

Place Temperature

Nearby Weather Stations